Latest Coastal Weather Observations for Friendly Beaches

IDT60701

Issued at 8:45 pm EST Friday 25 July 2014 (issued every 10 minutes, with the page automatically refreshed every 10 minutes)

About coastal observations | Map of coastal stations | Coastal observations for TAS | Marine services | Other Formats
Station Details ID: 092114 Name: FRIENDLY BEACHES Lat: -42.00 Lon: 148.28 Height: 55.0 m
Data from the previous 72 hours. | See also: Recent months at Friendly Beaches
Date/Time
EST
Temp

°C
Wind Pressure Rain
since 9am
mm
Weather Cloud Vis
km
Sea
Height
m
Swell
Dir
 
Speed
knots
Gust
knots
hPa Trend Height
m
Period
s
Dir
25/08:30pm 9.3 N 3 4 1018.2 - 21.8 - - - - - - -
25/08:00pm 9.2 NNE 3 5 1018.4 - 21.8 - - - - - - -
25/07:30pm 9.2 W 3 4 1018.4 - 21.6 - - - - - - -
25/07:00pm 9.2 NW 3 4 1018.4 - 21.6 - - - - - - -
25/06:30pm 9.1 WNW 3 3 1018.1 - 21.6 - - - - - - -
25/06:00pm 9.4 N 2 3 1017.9 - 21.6 - - - - - - -
25/05:30pm 9.8 WNW 2 2 1017.7 - 21.6 - - - - - - -
25/05:00pm 10.1 NW 2 4 1017.3 - 21.6 - - - - - - -
25/04:30pm 10.5 SW 1 2 1017.0 - 21.6 - - - - - - -
25/04:00pm 10.4 S 4 5 1017.1 - 21.6 - - - - - - -
25/03:30pm 10.0 N 1 2 1017.1 - 21.0 - - - - - - -
25/03:00pm 10.6 NNE 4 6 1017.6 - 19.2 Rain - - - - - -
25/02:30pm 10.2 N 4 6 1017.5 - 15.0 - - - - - - -
25/02:00pm 10.7 N 10 15 1017.7 - 12.2 - - - - - - -
25/01:30pm 10.7 NNW 8 14 1017.2 - 7.4 - - - - - - -
25/01:00pm 11.1 NNW 10 18 1017.4 - 5.0 - - - - - - -
25/12:30pm 12.4 N 6 8 1017.2 - 3.0 - - - - - - -
25/12:00pm 12.6 N 4 9 1017.6 - 0.6 Rain - - - - - -
25/11:30am 13.0 N 4 6 1017.6 - 0.0 - - - - - - -
25/11:00am 13.8 NNE 3 5 1018.1 - 0.0 - - - - - - -
25/10:30am 14.2 NNE 4 6 1018.1 - 0.0 - - - - - - -
25/10:00am 13.9 NE 5 7 1018.2 - 0.0 - - - - - - -
25/09:30am 13.9 N 4 8 1017.9 - 0.0 - - - - - - -
25/09:00am 12.8 N 5 8 1017.8 - 1.0 - - - - - - -
25/08:30am 12.3 NNE 3 4 1017.3 - 1.0 - - - - - - -
25/08:00am 12.2 CALM 0 0 1017.2 - 1.0 - - - - - - -
25/07:30am 12.2 CALM 0 0 1017.1 - 1.0 - - - - - - -
25/07:00am 11.3 NW 2 3 1017.1 - 1.0 - - - - - - -
25/06:30am 12.4 NNE 4 7 1016.9 - 1.0 - - - - - - -
25/06:00am 11.4 SSW 1 2 1016.6 - 0.2 - - - - - - -
25/05:30am 9.4 W 2 3 1016.6 - 0.2 - - - - - - -
25/05:00am 8.6 WNW 6 10 1016.9 - 0.2 - - - - - - -
25/04:30am 9.8 CALM 0 0 1016.5 - 0.2 - - - - - - -
25/04:00am 8.5 NW 4 7 1016.8 - 0.2 - - - - - - -
25/03:30am 7.6 WNW 6 9 1017.0 - 0.2 - - - - - - -
25/03:00am 8.0 WNW 5 6 1017.0 - 0.2 - - - - - - -
25/02:30am 7.7 WNW 5 6 1017.2 - 0.2 - - - - - - -
25/02:00am 7.7 NW 6 8 1017.4 - 0.2 - - - - - - -
25/01:30am 8.0 WNW 5 6 1017.3 - 0.2 - - - - - - -
25/01:00am 8.7 NW 5 5 1017.5 - 0.2 - - - - - - -
25/12:30am 8.4 NW 5 8 1017.6 - 0.2 - - - - - - -
25/12:00am 8.5 WNW 5 6 1017.9 - 0.2 - - - - - - -
 
Date/Time
EST
Temp

°C
Wind Pressure Rain
since 9am
mm
Weather Cloud Vis
km
Sea
Height
m
Swell
Dir
 
Speed
knots
Gust
knots
hPa Trend Height
m
Period
s
Dir
24/11:30pm 8.3 WNW 5 6 1018.0 - 0.2 - - - - - - -
24/11:00pm 7.6 WNW 5 5 1018.2 - 0.2 - - - - - - -
24/10:30pm 8.0 WNW 4 5 1018.2 - 0.2 - - - - - - -
24/10:00pm 8.4 WNW 4 5 1018.4 - 0.2 - - - - - - -
24/09:30pm 8.4 WNW 4 5 1018.4 - 0.0 - - - - - - -
24/09:00pm 8.4 WNW 4 4 1018.6 - 0.0 - - - - - - -
24/08:30pm 8.7 NW 3 5 1018.6 - 0.0 - - - - - - -
24/08:00pm 8.6 WNW 2 3 1018.7 - 0.0 - - - - - - -
24/07:30pm 10.0 N 3 6 1018.5 - 0.0 - - - - - - -
24/07:00pm 9.8 N 4 6 1018.3 - 0.0 - - - - - - -
24/06:30pm 9.9 N 3 4 1018.2 - 0.0 - - - - - - -
24/06:00pm 10.0 N 4 5 1018.1 - 0.0 - - - - - - -
24/05:30pm 10.0 N 3 4 1018.1 - 0.0 - - - - - - -
24/05:00pm 11.3 NNE 2 3 1018.1 - 0.0 - - - - - - -
24/04:30pm 11.9 N 3 4 1018.0 - 0.0 - - - - - - -
24/04:00pm 12.1 NE 3 6 1018.0 - 0.0 - - - - - - -
24/03:30pm 12.7 NE 5 7 1017.8 - 0.0 - - - - - - -
24/03:00pm 13.3 NE 4 8 1017.8 - 0.0 - - - - - - -
24/02:30pm 13.0 ENE 5 7 1017.8 - 0.0 - - - - - - -
24/02:00pm 13.4 ENE 6 8 1017.9 - 0.0 - - - - - - -
24/01:30pm 13.0 E 4 6 1018.2 - 0.0 - - - - - - -
24/01:00pm 12.3 ESE 3 5 1018.7 - 0.0 - - - - - - -
24/12:30pm 12.1 ESE 3 5 1018.9 - 0.0 - - - - - - -
24/12:00pm 12.5 CALM 0 0 1019.3 - 0.0 - - - - - - -
24/11:30am 12.1 CALM 0 0 1019.6 - 0.0 - - - - - - -
24/11:00am 9.8 WNW 3 5 1020.1 - 0.0 - - - - - - -
24/10:30am 9.1 WNW 3 5 1020.4 - 0.0 - - - - - - -
24/10:00am 7.0 WNW 5 6 1020.4 - 0.0 - - - - - - -
24/09:30am 6.0 WNW 6 7 1020.4 - 0.0 - - - - - - -
24/09:00am 4.6 WNW 7 7 1020.2 - 0.0 - - - - - - -
24/08:30am 3.2 NW 7 7 1020.1 - 0.0 - - - - - - -
24/08:00am 3.1 WNW 5 6 1020.0 - 0.0 - - - - - - -
24/07:30am 4.9 WNW 5 6 1019.8 - 0.0 - - - - - - -
24/07:00am 3.6 WNW 6 6 1019.9 - 0.0 - - - - - - -
24/06:30am 3.4 WNW 6 7 1019.6 - 0.0 - - - - - - -
24/06:00am 3.2 WNW 7 7 1019.7 - 0.0 - - - - - - -
24/05:30am 3.4 W 6 7 1019.6 - 0.0 - - - - - - -
24/05:00am 3.2 WNW 4 5 1019.8 - 0.0 - - - - - - -
24/04:30am 2.2 WNW 5 6 1019.6 - 0.0 - - - - - - -
24/04:00am 2.7 NW 3 5 1019.6 - 0.0 - - - - - - -
24/03:30am 3.1 W 2 4 1019.4 - 0.0 - - - - - - -
24/03:00am 2.8 WNW 4 5 1019.6 - 0.0 - - - - - - -
24/02:30am 2.6 NW 3 3 1019.8 - 0.0 - - - - - - -
24/02:00am 2.2 WNW 5 6 1020.1 - 0.0 - - - - - - -
24/01:30am 4.2 WNW 3 4 1020.1 - 0.0 - - - - - - -
24/01:00am 3.7 WNW 5 5 1020.2 - 0.0 - - - - - - -
24/12:30am 3.3 WNW 5 6 1020.4 - 0.0 - - - - - - -
24/12:00am 4.1 WNW 5 5 1020.8 - 0.0 - - - - - - -
 
Date/Time
EST
Temp

°C
Wind Pressure Rain
since 9am
mm
Weather Cloud Vis
km
Sea
Height
m
Swell
Dir
 
Speed
knots
Gust
knots
hPa Trend Height
m
Period
s
Dir
23/11:30pm 5.0 WNW 3 4 1021.0 - 0.0 - - - - - - -
23/11:00pm 3.2 WNW 6 6 1021.5 - 0.0 - - - - - - -
23/10:30pm 4.0 WNW 5 5 1021.4 - 0.0 - - - - - - -
23/10:00pm 4.6 WNW 4 5 1021.6 - 0.0 - - - - - - -
23/09:30pm 5.6 NNW 4 5 1021.6 - 0.0 - - - - - - -
23/09:00pm 7.1 NNW 4 6 1021.8 - 0.0 - - - - - - -
23/08:30pm 8.5 NNW 5 7 1021.8 - 0.0 - - - - - - -
23/08:00pm 7.8 NNW 5 6 1021.8 - 0.0 - - - - - - -
23/07:30pm 8.0 NNW 4 5 1021.7 - 0.0 - - - - - - -
23/07:00pm 8.7 N 5 6 1021.7 - 0.0 - - - - - - -
23/06:30pm 7.5 N 4 5 1021.5 - 0.0 - - - - - - -
23/06:00pm 8.3 CALM 0 1 1021.4 - 0.0 - - - - - - -
23/05:30pm 8.9 E 1 3 1021.3 - 0.0 - - - - - - -
23/05:00pm 9.7 N 3 5 1021.4 - 0.0 - - - - - - -
23/04:30pm 10.9 N 5 6 1021.2 - 0.0 - - - - - - -
23/04:00pm 11.6 NNE 4 7 1021.2 - 0.0 - - - - - - -
23/03:30pm 13.0 NNE 4 7 1021.2 - 0.0 - - - - - - -
23/03:00pm 14.4 NNE 5 7 1021.3 - 0.0 - - - - - - -
23/02:30pm 13.5 NNE 5 7 1021.2 - 0.0 - - - - - - -
23/02:00pm 14.4 ENE 6 8 1021.5 - 0.0 - - - - - - -
23/01:30pm 14.8 NE 4 7 1021.7 - 0.0 - - - - - - -
23/01:00pm 14.1 ENE 4 6 1022.1 - 0.0 - - - - - - -
23/12:30pm 14.4 ENE 3 5 1022.5 - 0.0 - - - - - - -
23/12:00pm 13.9 WNW 2 4 1023.1 - 0.0 - - - - - - -
23/11:30am 12.9 WNW 3 4 1023.3 - 0.0 - - - - - - -
23/11:00am 11.7 WNW 3 5 1023.9 - 0.0 - - - - - - -
23/10:30am 10.7 WNW 4 6 1024.1 - 0.0 - - - - - - -
23/10:00am 8.8 WNW 5 7 1024.2 - 0.0 - - - - - - -
23/09:30am 7.8 WNW 6 8 1024.1 - 0.0 - - - - - - -
23/09:00am 6.2 WNW 7 8 1024.2 - 0.2 - - - - - - -
23/08:30am 5.4 WNW 7 8 1024.0 - 0.2 - - - - - - -
23/08:00am 4.0 WNW 7 8 1024.0 - 0.2 - - - - - - -
23/07:30am 3.1 WNW 8 10 1023.7 - 0.2 - - - - - - -
23/07:00am 3.3 WNW 5 6 1023.6 - 0.2 - - - - - - -
23/06:30am 5.3 W 1 2 1023.3 - 0.2 - - - - - - -
23/06:00am 4.8 NW 3 4 1023.5 - 0.2 - - - - - - -
23/05:30am 5.9 WNW 4 5 1023.3 - 0.2 - - - - - - -
23/05:00am 6.3 WNW 5 6 1023.5 - 0.2 - - - - - - -
23/04:30am 4.0 W 5 7 1023.6 - 0.2 - - - - - - -
23/04:00am 5.7 W 5 5 1023.6 - 0.2 - - - - - - -
23/03:30am 5.8 WNW 5 6 1023.5 - 0.2 - - - - - - -
23/03:00am 5.3 WNW 6 7 1023.7 - 0.2 - - - - - - -
23/02:30am 5.3 WNW 6 7 1023.7 - 0.2 - - - - - - -
23/02:00am 5.2 WNW 6 7 1023.8 - 0.2 - - - - - - -
23/01:30am 5.3 WNW 7 8 1023.7 - 0.2 - - - - - - -
23/01:00am 5.7 WNW 7 8 1023.8 - 0.2 - - - - - - -
23/12:30am 4.6 WNW 8 9 1024.1 - 0.2 - - - - - - -
23/12:00am 5.3 WNW 7 8 1024.2 - 0.2 - - - - - - -
 
Date/Time
EST
Temp

°C
Wind Pressure Rain
since 9am
mm
Weather Cloud Vis
km
Sea
Height
m
Swell
Dir
 
Speed
knots
Gust
knots
hPa Trend Height
m
Period
s
Dir
22/11:30pm 5.0 WNW 7 8 1024.3 - 0.2 - - - - - - -
22/11:00pm 5.6 WNW 6 7 1024.5 - 0.2 - - - - - - -
22/10:30pm 4.8 WNW 7 8 1024.4 - 0.2 - - - - - - -
22/10:00pm 5.6 WNW 6 6 1024.5 - 0.2 - - - - - - -
22/09:30pm 4.9 WNW 6 7 1024.3 - 0.2 - - - - - - -
22/09:00pm 5.6 WNW 5 5 1024.5 - 0.2 - - - - - - -

Other Formats:

Comma delimited format used in spreadsheet applications
http://www.bom.gov.au/fwo/IDT60701/IDT60701.94987.axf

JavaScript Object Notation format (JSON) in row-major order
http://www.bom.gov.au/fwo/IDT60701/IDT60701.94987.json